sensor_id;sensor_type;location;lat;lon;timestamp;P1;durP1;ratioP1;P2;durP2;ratioP2
21677;SDS011;11000;50.360;7.582;2023-08-06T00:01:12;5.27;;;3.20;;
21677;SDS011;11000;50.360;7.582;2023-08-06T00:03:33;3.30;;;3.00;;
21677;SDS011;11000;50.360;7.582;2023-08-06T00:05:53;5.33;;;3.00;;
21677;SDS011;11000;50.360;7.582;2023-08-06T00:08:14;3.07;;;2.77;;
21677;SDS011;11000;50.360;7.582;2023-08-06T00:10:34;2.87;;;2.67;;
21677;SDS011;11000;50.360;7.582;2023-08-06T00:12:55;4.13;;;3.30;;
21677;SDS011;11000;50.360;7.582;2023-08-06T00:15:15;3.40;;;3.10;;
21677;SDS011;11000;50.360;7.582;2023-08-06T00:17:36;3.63;;;3.07;;
21677;SDS011;11000;50.360;7.582;2023-08-06T00:19:57;3.60;;;2.97;;
21677;SDS011;11000;50.360;7.582;2023-08-06T00:22:17;3.50;;;3.20;;
21677;SDS011;11000;50.360;7.582;2023-08-06T00:24:38;6.53;;;3.03;;
21677;SDS011;11000;50.360;7.582;2023-08-06T00:26:58;3.43;;;3.10;;
21677;SDS011;11000;50.360;7.582;2023-08-06T00:29:19;5.33;;;3.17;;
21677;SDS011;11000;50.360;7.582;2023-08-06T00:31:39;5.57;;;3.20;;
21677;SDS011;11000;50.360;7.582;2023-08-06T00:34:00;5.90;;;3.30;;
21677;SDS011;11000;50.360;7.582;2023-08-06T00:36:20;5.20;;;3.30;;
21677;SDS011;11000;50.360;7.582;2023-08-06T00:38:41;4.63;;;3.50;;
21677;SDS011;11000;50.360;7.582;2023-08-06T00:41:01;4.47;;;3.37;;
21677;SDS011;11000;50.360;7.582;2023-08-06T00:43:22;5.33;;;3.60;;
21677;SDS011;11000;50.360;7.582;2023-08-06T00:45:42;4.23;;;3.33;;
21677;SDS011;11000;50.360;7.582;2023-08-06T00:48:03;6.57;;;3.57;;
21677;SDS011;11000;50.360;7.582;2023-08-06T00:50:25;4.27;;;3.50;;
21677;SDS011;11000;50.360;7.582;2023-08-06T00:52:46;5.40;;;3.37;;
21677;SDS011;11000;50.360;7.582;2023-08-06T00:55:07;4.90;;;3.50;;
21677;SDS011;11000;50.360;7.582;2023-08-06T00:57:28;4.00;;;3.23;;
21677;SDS011;11000;50.360;7.582;2023-08-06T00:59:49;4.20;;;3.67;;
21677;SDS011;11000;50.360;7.582;2023-08-06T01:02:09;4.63;;;3.47;;
21677;SDS011;11000;50.360;7.582;2023-08-06T01:04:30;3.40;;;3.10;;
21677;SDS011;11000;50.360;7.582;2023-08-06T01:06:59;3.50;;;3.10;;
21677;SDS011;11000;50.360;7.582;2023-08-06T01:09:45;3.90;;;3.30;;
21677;SDS011;11000;50.360;7.582;2023-08-06T01:12:34;4.67;;;3.50;;
21677;SDS011;11000;50.360;7.582;2023-08-06T01:15:13;4.00;;;3.10;;
21677;SDS011;11000;50.360;7.582;2023-08-06T01:17:37;6.13;;;3.17;;
21677;SDS011;11000;50.360;7.582;2023-08-06T01:20:00;4.17;;;3.37;;
21677;SDS011;11000;50.360;7.582;2023-08-06T01:22:20;3.57;;;3.27;;
21677;SDS011;11000;50.360;7.582;2023-08-06T01:24:46;4.33;;;3.43;;
21677;SDS011;11000;50.360;7.582;2023-08-06T01:27:13;4.13;;;3.43;;
21677;SDS011;11000;50.360;7.582;2023-08-06T01:29:47;3.80;;;3.17;;
21677;SDS011;11000;50.360;7.582;2023-08-06T01:32:14;3.80;;;3.40;;
21677;SDS011;11000;50.360;7.582;2023-08-06T01:34:36;3.80;;;3.50;;
21677;SDS011;11000;50.360;7.582;2023-08-06T01:37:00;4.70;;;3.57;;
21677;SDS011;11000;50.360;7.582;2023-08-06T01:39:21;5.07;;;3.23;;
21677;SDS011;11000;50.360;7.582;2023-08-06T01:41:42;5.53;;;3.20;;
21677;SDS011;11000;50.360;7.582;2023-08-06T01:44:02;5.30;;;2.93;;
21677;SDS011;11000;50.360;7.582;2023-08-06T01:46:23;4.77;;;3.30;;
21677;SDS011;11000;50.360;7.582;2023-08-06T01:48:43;3.07;;;2.80;;
21677;SDS011;11000;50.360;7.582;2023-08-06T01:51:04;4.30;;;3.30;;
21677;SDS011;11000;50.360;7.582;2023-08-06T01:53:25;4.87;;;3.50;;
21677;SDS011;11000;50.360;7.582;2023-08-06T01:55:49;3.80;;;3.33;;
21677;SDS011;11000;50.360;7.582;2023-08-06T01:58:09;3.87;;;3.03;;
21677;SDS011;11000;50.360;7.582;2023-08-06T02:00:30;7.97;;;3.50;;
21677;SDS011;11000;50.360;7.582;2023-08-06T02:02:50;3.80;;;3.13;;
21677;SDS011;11000;50.360;7.582;2023-08-06T02:05:11;6.60;;;3.50;;
21677;SDS011;11000;50.360;7.582;2023-08-06T02:07:31;4.93;;;3.30;;
21677;SDS011;11000;50.360;7.582;2023-08-06T02:09:52;4.60;;;3.77;;
21677;SDS011;11000;50.360;7.582;2023-08-06T02:12:12;3.87;;;3.47;;
21677;SDS011;11000;50.360;7.582;2023-08-06T02:14:33;4.83;;;3.23;;
21677;SDS011;11000;50.360;7.582;2023-08-06T02:16:55;6.77;;;3.30;;
21677;SDS011;11000;50.360;7.582;2023-08-06T02:19:15;3.53;;;3.03;;
21677;SDS011;11000;50.360;7.582;2023-08-06T02:21:36;3.87;;;3.23;;
21677;SDS011;11000;50.360;7.582;2023-08-06T02:23:56;4.67;;;3.20;;
21677;SDS011;11000;50.360;7.582;2023-08-06T02:26:17;3.90;;;3.23;;
21677;SDS011;11000;50.360;7.582;2023-08-06T02:28:37;6.43;;;3.60;;
21677;SDS011;11000;50.360;7.582;2023-08-06T02:30:58;4.00;;;3.20;;
21677;SDS011;11000;50.360;7.582;2023-08-06T02:33:18;5.33;;;3.60;;
21677;SDS011;11000;50.360;7.582;2023-08-06T02:35:39;5.67;;;3.33;;
21677;SDS011;11000;50.360;7.582;2023-08-06T02:37:59;3.60;;;3.10;;
21677;SDS011;11000;50.360;7.582;2023-08-06T02:40:20;8.77;;;3.30;;
21677;SDS011;11000;50.360;7.582;2023-08-06T02:42:40;5.53;;;3.37;;
21677;SDS011;11000;50.360;7.582;2023-08-06T02:45:01;3.57;;;3.27;;
21677;SDS011;11000;50.360;7.582;2023-08-06T02:47:22;7.17;;;3.07;;
21677;SDS011;11000;50.360;7.582;2023-08-06T02:49:43;4.33;;;3.33;;
21677;SDS011;11000;50.360;7.582;2023-08-06T02:52:04;3.93;;;3.30;;
21677;SDS011;11000;50.360;7.582;2023-08-06T02:54:25;6.23;;;3.53;;
21677;SDS011;11000;50.360;7.582;2023-08-06T02:56:45;4.07;;;3.13;;
21677;SDS011;11000;50.360;7.582;2023-08-06T02:59:06;5.60;;;3.03;;
21677;SDS011;11000;50.360;7.582;2023-08-06T03:01:27;5.27;;;3.00;;
21677;SDS011;11000;50.360;7.582;2023-08-06T03:03:48;6.80;;;3.43;;
21677;SDS011;11000;50.360;7.582;2023-08-06T03:06:09;4.77;;;3.00;;
21677;SDS011;11000;50.360;7.582;2023-08-06T03:08:29;6.33;;;3.00;;
21677;SDS011;11000;50.360;7.582;2023-08-06T03:10:50;4.40;;;2.83;;
21677;SDS011;11000;50.360;7.582;2023-08-06T03:13:11;4.43;;;3.00;;
21677;SDS011;11000;50.360;7.582;2023-08-06T03:15:31;5.27;;;2.97;;
21677;SDS011;11000;50.360;7.582;2023-08-06T03:17:52;3.63;;;2.90;;
21677;SDS011;11000;50.360;7.582;2023-08-06T03:20:15;3.23;;;2.93;;
21677;SDS011;11000;50.360;7.582;2023-08-06T03:22:35;6.27;;;3.10;;
21677;SDS011;11000;50.360;7.582;2023-08-06T03:24:56;3.60;;;2.60;;
21677;SDS011;11000;50.360;7.582;2023-08-06T03:27:17;4.93;;;3.07;;
21677;SDS011;11000;50.360;7.582;2023-08-06T03:29:37;4.03;;;2.70;;
21677;SDS011;11000;50.360;7.582;2023-08-06T03:31:57;6.23;;;2.80;;
21677;SDS011;11000;50.360;7.582;2023-08-06T03:34:18;4.23;;;2.87;;
21677;SDS011;11000;50.360;7.582;2023-08-06T03:36:39;4.37;;;2.67;;
21677;SDS011;11000;50.360;7.582;2023-08-06T03:38:59;2.70;;;2.50;;
21677;SDS011;11000;50.360;7.582;2023-08-06T03:41:20;3.70;;;2.60;;
21677;SDS011;11000;50.360;7.582;2023-08-06T03:43:40;6.20;;;3.20;;
21677;SDS011;11000;50.360;7.582;2023-08-06T03:46:01;5.80;;;2.97;;
21677;SDS011;11000;50.360;7.582;2023-08-06T03:48:21;4.13;;;3.03;;
21677;SDS011;11000;50.360;7.582;2023-08-06T03:50:42;3.10;;;2.80;;
21677;SDS011;11000;50.360;7.582;2023-08-06T03:53:02;4.93;;;2.77;;
21677;SDS011;11000;50.360;7.582;2023-08-06T03:55:23;5.33;;;2.97;;
21677;SDS011;11000;50.360;7.582;2023-08-06T03:57:43;3.80;;;3.03;;
21677;SDS011;11000;50.360;7.582;2023-08-06T04:00:04;5.37;;;2.47;;
21677;SDS011;11000;50.360;7.582;2023-08-06T04:02:25;6.03;;;2.70;;
21677;SDS011;11000;50.360;7.582;2023-08-06T04:04:45;3.97;;;2.63;;
21677;SDS011;11000;50.360;7.582;2023-08-06T04:07:06;2.90;;;2.53;;
21677;SDS011;11000;50.360;7.582;2023-08-06T04:09:28;4.77;;;2.70;;
21677;SDS011;11000;50.360;7.582;2023-08-06T04:11:49;3.10;;;2.80;;
21677;SDS011;11000;50.360;7.582;2023-08-06T04:14:09;5.57;;;2.90;;
21677;SDS011;11000;50.360;7.582;2023-08-06T04:16:30;4.30;;;2.50;;
21677;SDS011;11000;50.360;7.582;2023-08-06T04:18:50;4.17;;;2.80;;
21677;SDS011;11000;50.360;7.582;2023-08-06T04:21:11;4.83;;;2.60;;
21677;SDS011;11000;50.360;7.582;2023-08-06T04:23:31;2.57;;;2.37;;
21677;SDS011;11000;50.360;7.582;2023-08-06T04:25:52;5.53;;;2.67;;
21677;SDS011;11000;50.360;7.582;2023-08-06T04:28:15;5.20;;;2.80;;
21677;SDS011;11000;50.360;7.582;2023-08-06T04:30:36;5.10;;;2.53;;
21677;SDS011;11000;50.360;7.582;2023-08-06T04:32:57;4.87;;;2.73;;
21677;SDS011;11000;50.360;7.582;2023-08-06T04:35:18;3.40;;;2.53;;
21677;SDS011;11000;50.360;7.582;2023-08-06T04:37:38;4.10;;;2.80;;
21677;SDS011;11000;50.360;7.582;2023-08-06T04:39:59;4.90;;;2.63;;
21677;SDS011;11000;50.360;7.582;2023-08-06T04:42:19;2.83;;;2.40;;
21677;SDS011;11000;50.360;7.582;2023-08-06T04:44:40;3.87;;;2.70;;
21677;SDS011;11000;50.360;7.582;2023-08-06T04:47:00;6.37;;;2.37;;
21677;SDS011;11000;50.360;7.582;2023-08-06T04:49:21;2.93;;;2.57;;
21677;SDS011;11000;50.360;7.582;2023-08-06T04:51:41;5.30;;;2.43;;
21677;SDS011;11000;50.360;7.582;2023-08-06T04:54:02;3.30;;;2.40;;
21677;SDS011;11000;50.360;7.582;2023-08-06T04:56:23;4.20;;;2.23;;
21677;SDS011;11000;50.360;7.582;2023-08-06T04:58:43;3.17;;;2.20;;
21677;SDS011;11000;50.360;7.582;2023-08-06T05:01:04;3.27;;;2.60;;
21677;SDS011;11000;50.360;7.582;2023-08-06T05:03:24;4.67;;;2.70;;
21677;SDS011;11000;50.360;7.582;2023-08-06T05:05:45;2.77;;;2.07;;
21677;SDS011;11000;50.360;7.582;2023-08-06T05:08:06;3.63;;;2.30;;
21677;SDS011;11000;50.360;7.582;2023-08-06T05:10:27;3.13;;;2.17;;
21677;SDS011;11000;50.360;7.582;2023-08-06T05:12:47;3.10;;;2.10;;
21677;SDS011;11000;50.360;7.582;2023-08-06T05:15:08;7.70;;;2.10;;
21677;SDS011;11000;50.360;7.582;2023-08-06T05:17:28;5.90;;;1.80;;
21677;SDS011;11000;50.360;7.582;2023-08-06T05:19:49;3.30;;;1.60;;
21677;SDS011;11000;50.360;7.582;2023-08-06T05:22:10;2.27;;;1.90;;
21677;SDS011;11000;50.360;7.582;2023-08-06T05:24:30;2.27;;;1.50;;
21677;SDS011;11000;50.360;7.582;2023-08-06T05:26:51;2.53;;;1.73;;
21677;SDS011;11000;50.360;7.582;2023-08-06T05:29:11;1.87;;;1.43;;
21677;SDS011;11000;50.360;7.582;2023-08-06T05:31:32;2.13;;;1.37;;
21677;SDS011;11000;50.360;7.582;2023-08-06T05:33:52;3.20;;;1.17;;
21677;SDS011;11000;50.360;7.582;2023-08-06T05:36:13;1.70;;;1.03;;
21677;SDS011;11000;50.360;7.582;2023-08-06T05:38:33;1.90;;;0.80;;
21677;SDS011;11000;50.360;7.582;2023-08-06T05:40:54;1.50;;;0.70;;
21677;SDS011;11000;50.360;7.582;2023-08-06T05:43:15;2.90;;;0.70;;
21677;SDS011;11000;50.360;7.582;2023-08-06T05:45:35;2.63;;;0.87;;
21677;SDS011;11000;50.360;7.582;2023-08-06T05:47:56;4.33;;;1.10;;
21677;SDS011;11000;50.360;7.582;2023-08-06T05:50:18;1.73;;;0.87;;
21677;SDS011;11000;50.360;7.582;2023-08-06T05:52:38;2.10;;;0.60;;
21677;SDS011;11000;50.360;7.582;2023-08-06T05:54:59;1.17;;;0.80;;
21677;SDS011;11000;50.360;7.582;2023-08-06T05:57:19;1.47;;;0.80;;
21677;SDS011;11000;50.360;7.582;2023-08-06T05:59:40;1.53;;;0.80;;
21677;SDS011;11000;50.360;7.582;2023-08-06T06:02:01;1.17;;;0.47;;
21677;SDS011;11000;50.360;7.582;2023-08-06T06:04:21;0.93;;;0.60;;
21677;SDS011;11000;50.360;7.582;2023-08-06T06:06:44;1.47;;;0.73;;
21677;SDS011;11000;50.360;7.582;2023-08-06T06:09:05;1.33;;;0.90;;
21677;SDS011;11000;50.360;7.582;2023-08-06T06:11:25;0.20;;;0.20;;
21677;SDS011;11000;50.360;7.582;2023-08-06T06:13:46;0.70;;;0.30;;
21677;SDS011;11000;50.360;7.582;2023-08-06T06:16:06;1.50;;;0.20;;
21677;SDS011;11000;50.360;7.582;2023-08-06T06:18:27;0.20;;;0.20;;
21677;SDS011;11000;50.360;7.582;2023-08-06T06:20:47;0.60;;;0.10;;
21677;SDS011;11000;50.360;7.582;2023-08-06T06:23:08;0.20;;;0.13;;
21677;SDS011;11000;50.360;7.582;2023-08-06T06:25:29;0.23;;;0.10;;
21677;SDS011;11000;50.360;7.582;2023-08-06T06:27:49;0.57;;;0.23;;
21677;SDS011;11000;50.360;7.582;2023-08-06T06:30:10;0.93;;;0.20;;
21677;SDS011;11000;50.360;7.582;2023-08-06T06:32:32;0.83;;;0.23;;
21677;SDS011;11000;50.360;7.582;2023-08-06T06:34:52;0.73;;;0.30;;
21677;SDS011;11000;50.360;7.582;2023-08-06T06:37:13;0.30;;;0.20;;
21677;SDS011;11000;50.360;7.582;2023-08-06T06:39:33;0.70;;;0.20;;
21677;SDS011;11000;50.360;7.582;2023-08-06T06:41:53;0.63;;;0.40;;
21677;SDS011;11000;50.360;7.582;2023-08-06T06:44:14;0.20;;;0.20;;
21677;SDS011;11000;50.360;7.582;2023-08-06T06:46:35;0.33;;;0.10;;
21677;SDS011;11000;50.360;7.582;2023-08-06T06:48:55;0.40;;;0.30;;
21677;SDS011;11000;50.360;7.582;2023-08-06T06:51:16;0.20;;;0.20;;
21677;SDS011;11000;50.360;7.582;2023-08-06T06:53:36;0.90;;;0.30;;
21677;SDS011;11000;50.360;7.582;2023-08-06T06:56:03;1.80;;;0.30;;
21677;SDS011;11000;50.360;7.582;2023-08-06T06:58:24;1.63;;;0.40;;
21677;SDS011;11000;50.360;7.582;2023-08-06T07:00:45;0.67;;;0.30;;
21677;SDS011;11000;50.360;7.582;2023-08-06T07:03:07;2.43;;;0.30;;
21677;SDS011;11000;50.360;7.582;2023-08-06T07:05:27;0.30;;;0.20;;
21677;SDS011;11000;50.360;7.582;2023-08-06T07:07:48;0.67;;;0.30;;
21677;SDS011;11000;50.360;7.582;2023-08-06T07:10:09;0.40;;;0.20;;
21677;SDS011;11000;50.360;7.582;2023-08-06T07:12:29;0.40;;;0.20;;
21677;SDS011;11000;50.360;7.582;2023-08-06T07:14:50;0.13;;;0.10;;
21677;SDS011;11000;50.360;7.582;2023-08-06T07:17:10;0.20;;;0.10;;
21677;SDS011;11000;50.360;7.582;2023-08-06T07:19:31;0.40;;;0.20;;
21677;SDS011;11000;50.360;7.582;2023-08-06T07:21:51;0.57;;;0.30;;
21677;SDS011;11000;50.360;7.582;2023-08-06T07:24:12;0.20;;;0.20;;
21677;SDS011;11000;50.360;7.582;2023-08-06T07:26:32;0.20;;;0.20;;
21677;SDS011;11000;50.360;7.582;2023-08-06T07:28:53;0.20;;;0.20;;
21677;SDS011;11000;50.360;7.582;2023-08-06T07:31:13;0.70;;;0.33;;
21677;SDS011;11000;50.360;7.582;2023-08-06T07:33:34;0.97;;;0.40;;
21677;SDS011;11000;50.360;7.582;2023-08-06T07:35:54;1.13;;;0.23;;
21677;SDS011;11000;50.360;7.582;2023-08-06T07:38:15;0.77;;;0.43;;
21677;SDS011;11000;50.360;7.582;2023-08-06T07:40:36;1.57;;;0.30;;
21677;SDS011;11000;50.360;7.582;2023-08-06T07:42:57;0.40;;;0.30;;
21677;SDS011;11000;50.360;7.582;2023-08-06T07:45:18;0.90;;;0.40;;
21677;SDS011;11000;50.360;7.582;2023-08-06T07:47:39;0.30;;;0.13;;
21677;SDS011;11000;50.360;7.582;2023-08-06T07:49:59;0.60;;;0.37;;
21677;SDS011;11000;50.360;7.582;2023-08-06T07:52:20;1.60;;;0.27;;
21677;SDS011;11000;50.360;7.582;2023-08-06T07:54:40;8.20;;;0.60;;
21677;SDS011;11000;50.360;7.582;2023-08-06T07:57:01;0.30;;;0.20;;
21677;SDS011;11000;50.360;7.582;2023-08-06T07:59:21;0.30;;;0.20;;
21677;SDS011;11000;50.360;7.582;2023-08-06T08:01:42;0.30;;;0.20;;
21677;SDS011;11000;50.360;7.582;2023-08-06T08:04:02;1.27;;;0.50;;
21677;SDS011;11000;50.360;7.582;2023-08-06T08:06:32;0.87;;;0.30;;
21677;SDS011;11000;50.360;7.582;2023-08-06T08:08:53;0.97;;;0.40;;
21677;SDS011;11000;50.360;7.582;2023-08-06T08:11:13;1.00;;;0.30;;
21677;SDS011;11000;50.360;7.582;2023-08-06T08:13:35;0.57;;;0.37;;
21677;SDS011;11000;50.360;7.582;2023-08-06T08:15:57;1.73;;;0.30;;
21677;SDS011;11000;50.360;7.582;2023-08-06T08:18:18;0.37;;;0.20;;
21677;SDS011;11000;50.360;7.582;2023-08-06T08:20:39;0.90;;;0.30;;
21677;SDS011;11000;50.360;7.582;2023-08-06T08:23:01;0.87;;;0.30;;
21677;SDS011;11000;50.360;7.582;2023-08-06T08:25:22;2.00;;;0.30;;
21677;SDS011;11000;50.360;7.582;2023-08-06T08:27:42;1.40;;;0.30;;
21677;SDS011;11000;50.360;7.582;2023-08-06T08:30:03;0.30;;;0.30;;
21677;SDS011;11000;50.360;7.582;2023-08-06T08:32:25;1.40;;;0.40;;
21677;SDS011;11000;50.360;7.582;2023-08-06T08:34:45;0.30;;;0.30;;
21677;SDS011;11000;50.360;7.582;2023-08-06T08:37:06;0.40;;;0.20;;
21677;SDS011;11000;50.360;7.582;2023-08-06T08:39:26;1.30;;;0.30;;
21677;SDS011;11000;50.360;7.582;2023-08-06T08:41:47;0.10;;;0.10;;
21677;SDS011;11000;50.360;7.582;2023-08-06T08:44:10;0.30;;;0.10;;
21677;SDS011;11000;50.360;7.582;2023-08-06T08:46:33;0.27;;;0.27;;
21677;SDS011;11000;50.360;7.582;2023-08-06T08:48:55;0.30;;;0.10;;
21677;SDS011;11000;50.360;7.582;2023-08-06T08:51:16;0.83;;;0.10;;
21677;SDS011;11000;50.360;7.582;2023-08-06T08:53:37;0.20;;;0.20;;
21677;SDS011;11000;50.360;7.582;2023-08-06T08:55:59;0.53;;;0.20;;
21677;SDS011;11000;50.360;7.582;2023-08-06T08:58:20;0.30;;;0.20;;
21677;SDS011;11000;50.360;7.582;2023-08-06T09:00:43;0.50;;;0.23;;
21677;SDS011;11000;50.360;7.582;2023-08-06T09:03:06;0.50;;;0.10;;
21677;SDS011;11000;50.360;7.582;2023-08-06T09:05:28;0.47;;;0.10;;
21677;SDS011;11000;50.360;7.582;2023-08-06T09:07:50;0.30;;;0.27;;
21677;SDS011;11000;50.360;7.582;2023-08-06T09:10:16;1.30;;;0.20;;
21677;SDS011;11000;50.360;7.582;2023-08-06T09:12:41;2.57;;;0.20;;
21677;SDS011;11000;50.360;7.582;2023-08-06T09:15:01;0.10;;;0.10;;
21677;SDS011;11000;50.360;7.582;2023-08-06T09:17:23;1.33;;;0.37;;
21677;SDS011;11000;50.360;7.582;2023-08-06T09:19:44;0.13;;;0.10;;
21677;SDS011;11000;50.360;7.582;2023-08-06T09:22:06;0.83;;;0.20;;
21677;SDS011;11000;50.360;7.582;2023-08-06T09:24:33;2.47;;;0.30;;
21677;SDS011;11000;50.360;7.582;2023-08-06T09:26:58;0.30;;;0.30;;
21677;SDS011;11000;50.360;7.582;2023-08-06T09:29:23;0.47;;;0.40;;
21677;SDS011;11000;50.360;7.582;2023-08-06T09:31:44;1.20;;;0.20;;
21677;SDS011;11000;50.360;7.582;2023-08-06T09:34:14;1.23;;;0.40;;
21677;SDS011;11000;50.360;7.582;2023-08-06T09:36:43;0.70;;;0.40;;
21677;SDS011;11000;50.360;7.582;2023-08-06T09:39:13;4.73;;;0.50;;
21677;SDS011;11000;50.360;7.582;2023-08-06T09:41:35;0.67;;;0.40;;
21677;SDS011;11000;50.360;7.582;2023-08-06T09:43:55;2.77;;;0.50;;
21677;SDS011;11000;50.360;7.582;2023-08-06T09:46:16;1.43;;;0.50;;
21677;SDS011;11000;50.360;7.582;2023-08-06T09:48:36;0.30;;;0.30;;
21677;SDS011;11000;50.360;7.582;2023-08-06T09:50:57;0.50;;;0.30;;
21677;SDS011;11000;50.360;7.582;2023-08-06T09:53:18;1.77;;;0.50;;
21677;SDS011;11000;50.360;7.582;2023-08-06T09:55:39;1.17;;;0.60;;
21677;SDS011;11000;50.360;7.582;2023-08-06T09:58:00;1.53;;;0.50;;
21677;SDS011;11000;50.360;7.582;2023-08-06T10:00:22;1.50;;;1.10;;
21677;SDS011;11000;50.360;7.582;2023-08-06T10:02:43;0.40;;;0.40;;
21677;SDS011;11000;50.360;7.582;2023-08-06T10:05:05;0.83;;;0.83;;
21677;SDS011;11000;50.360;7.582;2023-08-06T10:07:26;1.23;;;0.70;;
21677;SDS011;11000;50.360;7.582;2023-08-06T10:09:49;3.70;;;1.20;;
21677;SDS011;11000;50.360;7.582;2023-08-06T10:12:10;1.33;;;0.70;;
21677;SDS011;11000;50.360;7.582;2023-08-06T10:14:32;0.83;;;0.70;;
21677;SDS011;11000;50.360;7.582;2023-08-06T10:16:56;0.97;;;0.87;;
21677;SDS011;11000;50.360;7.582;2023-08-06T10:19:18;2.53;;;0.87;;
21677;SDS011;11000;50.360;7.582;2023-08-06T10:21:40;0.73;;;0.73;;
21677;SDS011;11000;50.360;7.582;2023-08-06T10:24:01;1.10;;;0.90;;
21677;SDS011;11000;50.360;7.582;2023-08-06T10:26:26;3.17;;;1.13;;
21677;SDS011;11000;50.360;7.582;2023-08-06T10:28:48;1.37;;;0.70;;
21677;SDS011;11000;50.360;7.582;2023-08-06T10:31:08;0.63;;;0.50;;
21677;SDS011;11000;50.360;7.582;2023-08-06T10:36:03;0.37;;;0.37;;
21677;SDS011;11000;50.360;7.582;2023-08-06T10:38:29;0.77;;;0.37;;
21677;SDS011;11000;50.360;7.582;2023-08-06T10:43:24;0.40;;;0.37;;
21677;SDS011;11000;50.360;7.582;2023-08-06T10:45:49;1.00;;;0.60;;
21677;SDS011;11000;50.360;7.582;2023-08-06T10:48:10;0.40;;;0.37;;
21677;SDS011;11000;50.360;7.582;2023-08-06T10:50:31;0.43;;;0.23;;
21677;SDS011;11000;50.360;7.582;2023-08-06T10:52:52;0.30;;;0.27;;
21677;SDS011;11000;50.360;7.582;2023-08-06T10:55:13;0.20;;;0.20;;
21677;SDS011;11000;50.360;7.582;2023-08-06T10:57:44;0.20;;;0.20;;
21677;SDS011;11000;50.360;7.582;2023-08-06T11:00:05;0.37;;;0.30;;
21677;SDS011;11000;50.360;7.582;2023-08-06T11:02:26;0.40;;;0.30;;
21677;SDS011;11000;50.360;7.582;2023-08-06T11:04:48;0.73;;;0.30;;
21677;SDS011;11000;50.360;7.582;2023-08-06T11:07:09;0.77;;;0.40;;
21677;SDS011;11000;50.360;7.582;2023-08-06T11:09:30;0.70;;;0.30;;
21677;SDS011;11000;50.360;7.582;2023-08-06T11:11:50;0.87;;;0.40;;
21677;SDS011;11000;50.360;7.582;2023-08-06T11:14:14;0.40;;;0.40;;
21677;SDS011;11000;50.360;7.582;2023-08-06T11:16:36;0.77;;;0.30;;
21677;SDS011;11000;50.360;7.582;2023-08-06T11:18:57;0.30;;;0.30;;
21677;SDS011;11000;50.360;7.582;2023-08-06T11:21:19;3.03;;;0.50;;
21677;SDS011;11000;50.360;7.582;2023-08-06T11:23:41;1.40;;;0.43;;
21677;SDS011;11000;50.360;7.582;2023-08-06T11:26:01;0.47;;;0.40;;
21677;SDS011;11000;50.360;7.582;2023-08-06T11:28:23;0.80;;;0.30;;
21677;SDS011;11000;50.360;7.582;2023-08-06T11:30:43;0.40;;;0.40;;
21677;SDS011;11000;50.360;7.582;2023-08-06T11:33:06;0.77;;;0.30;;
21677;SDS011;11000;50.360;7.582;2023-08-06T11:35:27;0.93;;;0.50;;
21677;SDS011;11000;50.360;7.582;2023-08-06T11:37:47;0.67;;;0.50;;
21677;SDS011;11000;50.360;7.582;2023-08-06T11:40:08;1.60;;;0.70;;
21677;SDS011;11000;50.360;7.582;2023-08-06T11:42:31;2.83;;;0.60;;
21677;SDS011;11000;50.360;7.582;2023-08-06T11:44:51;1.27;;;0.70;;
21677;SDS011;11000;50.360;7.582;2023-08-06T11:47:13;0.30;;;0.30;;
21677;SDS011;11000;50.360;7.582;2023-08-06T11:52:13;1.00;;;0.50;;
21677;SDS011;11000;50.360;7.582;2023-08-06T11:54:33;2.57;;;0.30;;
21677;SDS011;11000;50.360;7.582;2023-08-06T11:56:54;2.80;;;0.40;;
21677;SDS011;11000;50.360;7.582;2023-08-06T11:59:14;0.73;;;0.60;;
21677;SDS011;11000;50.360;7.582;2023-08-06T12:01:35;1.20;;;0.40;;
21677;SDS011;11000;50.360;7.582;2023-08-06T12:03:59;2.77;;;0.80;;
21677;SDS011;11000;50.360;7.582;2023-08-06T12:06:19;0.90;;;0.43;;
21677;SDS011;11000;50.360;7.582;2023-08-06T12:08:40;1.23;;;0.43;;
21677;SDS011;11000;50.360;7.582;2023-08-06T12:11:02;0.60;;;0.40;;
21677;SDS011;11000;50.360;7.582;2023-08-06T12:13:23;0.20;;;0.20;;
21677;SDS011;11000;50.360;7.582;2023-08-06T12:15:43;0.87;;;0.40;;
21677;SDS011;11000;50.360;7.582;2023-08-06T12:18:05;1.53;;;0.50;;
21677;SDS011;11000;50.360;7.582;2023-08-06T12:20:26;0.40;;;0.30;;
21677;SDS011;11000;50.360;7.582;2023-08-06T12:22:48;1.40;;;0.50;;
21677;SDS011;11000;50.360;7.582;2023-08-06T12:25:10;1.90;;;1.20;;
21677;SDS011;11000;50.360;7.582;2023-08-06T12:27:32;3.07;;;2.13;;
21677;SDS011;11000;50.360;7.582;2023-08-06T12:29:52;2.00;;;0.63;;
21677;SDS011;11000;50.360;7.582;2023-08-06T12:32:13;2.10;;;0.30;;
21677;SDS011;11000;50.360;7.582;2023-08-06T12:34:34;2.43;;;0.50;;
21677;SDS011;11000;50.360;7.582;2023-08-06T12:36:54;0.50;;;0.30;;
21677;SDS011;11000;50.360;7.582;2023-08-06T12:39:15;1.90;;;0.40;;
21677;SDS011;11000;50.360;7.582;2023-08-06T12:41:35;0.63;;;0.37;;
21677;SDS011;11000;50.360;7.582;2023-08-06T12:43:56;1.70;;;0.47;;
21677;SDS011;11000;50.360;7.582;2023-08-06T12:46:16;1.60;;;0.60;;
21677;SDS011;11000;50.360;7.582;2023-08-06T12:48:37;1.60;;;0.37;;
21677;SDS011;11000;50.360;7.582;2023-08-06T12:50:58;1.93;;;0.63;;
21677;SDS011;11000;50.360;7.582;2023-08-06T12:53:18;2.70;;;0.40;;
21677;SDS011;11000;50.360;7.582;2023-08-06T12:55:42;1.67;;;0.50;;
21677;SDS011;11000;50.360;7.582;2023-08-06T12:58:03;3.20;;;0.70;;
21677;SDS011;11000;50.360;7.582;2023-08-06T13:00:24;1.97;;;0.83;;
21677;SDS011;11000;50.360;7.582;2023-08-06T13:02:47;2.53;;;0.70;;
21677;SDS011;11000;50.360;7.582;2023-08-06T13:05:07;1.23;;;0.50;;
21677;SDS011;11000;50.360;7.582;2023-08-06T13:07:29;1.27;;;0.60;;
21677;SDS011;11000;50.360;7.582;2023-08-06T13:09:50;3.13;;;0.70;;
21677;SDS011;11000;50.360;7.582;2023-08-06T13:12:10;1.03;;;0.50;;
21677;SDS011;11000;50.360;7.582;2023-08-06T13:14:31;1.40;;;0.47;;
21677;SDS011;11000;50.360;7.582;2023-08-06T13:16:52;0.50;;;0.33;;
21677;SDS011;11000;50.360;7.582;2023-08-06T13:19:12;4.30;;;0.70;;
21677;SDS011;11000;50.360;7.582;2023-08-06T13:21:34;3.53;;;0.60;;
21677;SDS011;11000;50.360;7.582;2023-08-06T13:23:57;1.03;;;0.70;;
21677;SDS011;11000;50.360;7.582;2023-08-06T13:26:18;1.07;;;0.70;;
21677;SDS011;11000;50.360;7.582;2023-08-06T13:28:38;1.23;;;0.70;;
21677;SDS011;11000;50.360;7.582;2023-08-06T13:30:59;1.50;;;0.50;;
21677;SDS011;11000;50.360;7.582;2023-08-06T13:33:21;1.80;;;0.50;;
21677;SDS011;11000;50.360;7.582;2023-08-06T13:35:41;0.90;;;0.53;;
21677;SDS011;11000;50.360;7.582;2023-08-06T13:38:02;0.57;;;0.50;;
21677;SDS011;11000;50.360;7.582;2023-08-06T13:40:23;1.53;;;0.40;;
21677;SDS011;11000;50.360;7.582;2023-08-06T13:42:43;0.93;;;0.60;;
21677;SDS011;11000;50.360;7.582;2023-08-06T13:45:04;3.03;;;0.70;;
21677;SDS011;11000;50.360;7.582;2023-08-06T13:47:26;1.10;;;0.70;;
21677;SDS011;11000;50.360;7.582;2023-08-06T13:49:46;1.03;;;0.63;;
21677;SDS011;11000;50.360;7.582;2023-08-06T13:52:07;0.80;;;0.40;;
21677;SDS011;11000;50.360;7.582;2023-08-06T13:54:27;1.83;;;0.47;;
21677;SDS011;11000;50.360;7.582;2023-08-06T13:56:48;2.00;;;0.50;;
21677;SDS011;11000;50.360;7.582;2023-08-06T13:59:09;2.73;;;0.70;;
21677;SDS011;11000;50.360;7.582;2023-08-06T14:01:33;0.87;;;0.50;;
21677;SDS011;11000;50.360;7.582;2023-08-06T14:03:53;0.90;;;0.40;;
21677;SDS011;11000;50.360;7.582;2023-08-06T14:06:14;2.63;;;0.30;;
21677;SDS011;11000;50.360;7.582;2023-08-06T14:08:35;1.33;;;0.40;;
21677;SDS011;11000;50.360;7.582;2023-08-06T14:10:55;0.50;;;0.30;;
21677;SDS011;11000;50.360;7.582;2023-08-06T14:13:16;0.57;;;0.43;;
21677;SDS011;11000;50.360;7.582;2023-08-06T14:15:36;0.73;;;0.40;;
21677;SDS011;11000;50.360;7.582;2023-08-06T14:17:59;0.90;;;0.30;;
21677;SDS011;11000;50.360;7.582;2023-08-06T14:20:20;1.13;;;0.40;;